• Join FlightAware (Why Join?)
  • Login
  • US Flag 
01:59PM EDT


 

Airport Tracker/Info


-or-


 

Live Flight TrackerFlight Track Log ✈ CLH2342 ✈ 23-Apr-2013 ✈ EDDM / MUC - LOWG / GRZ

Flight Track Log - Related Links

Times and Time Zones

All times are in EDT time to prevent confusion due to time zone crossing. See the CLH2342 flight status page for this flight to view local times or setup timezone preferences in your user account.

Time Position Orientation Groundspeed Altitude Reporting Facility
EDT Latitude Longitude Course Direction KTS MPH feet Rate Location/Type
05:46AM 48.1850 12.2670 118° Southeast  Level Estimated
05:47AM 48.1425 12.3868 118° Southeast  Level Estimated
05:48AM 48.0874 12.5411 118° Southeast  Level Estimated
05:49AM 48.0321 12.6952 118° Southeast  Level Estimated
05:50AM 47.9766 12.8489 118° Southeast  Level Estimated
05:51AM 47.9208 13.0023 118° Southeast  Level Estimated
05:52AM 47.8649 13.1553 119° Southeast  Level Estimated
05:53AM 47.8088 13.3080 119° Southeast  Level Estimated
05:54AM 47.7525 13.4604 119° Southeast  Level Estimated
05:55AM 47.6960 13.6125 119° Southeast  Level Estimated
05:56AM 47.6393 13.7642 119° Southeast  Level Estimated
05:57AM 47.5823 13.9156 119° Southeast  Level Estimated
05:58AM 47.5252 14.0667 119° Southeast  Level Estimated
05:59AM 47.4679 14.2174 119° Southeast  Level Estimated
06:00AM 47.4104 14.3678 119° Southeast  Level Estimated
06:01AM 47.3526 14.5179 120° Southeast  Level Estimated
06:02AM 47.2947 14.6677 120° Southeast  Level Estimated
06:03AM 47.2366 14.8171 120° Southeast  Level Estimated
06:04AM 47.1783 14.9662 120° Southeast  Level Estimated
06:05AM 47.1198 15.1150 120° Southeast  Level Estimated
06:06AM 47.0612 15.2634 120° Southeast  Level Estimated
06:07AM 47.0023 15.4115 120° Southeast  Level Estimated
06:08AM 46.9911 15.4396 120° Southeast  Level Estimated
06:09AM 46.9911 15.4396 204° Southwest  Level Estimated
06:10AM 46.9911 15.4396 204° Southwest  Level Estimated
06:11AM 46.9911 15.4396 204° Southwest  Level Estimated
06:12AM 46.9911 15.4396 204° Southwest  Level Estimated
06:13AM 46.9911 15.4396 204° Southwest  Level Estimated
06:14AM 46.9911 15.4396 204° Southwest  Level Estimated
06:15AM 46.9911 15.4396 204° Southwest  Level Estimated
06:16AM 46.9911 15.4396 204° Southwest  Level Estimated
06:17AM 46.9911 15.4396 204° Southwest  Level Estimated
06:18AM 46.9911 15.4396 204° Southwest  Level Estimated
06:19AM 46.9911 15.4396 204° Southwest  Level Estimated
06:20AM 46.9911 15.4396 204° Southwest  Level Estimated
06:21AM 46.9911 15.4396 204° Southwest  Level Estimated
06:22AM 46.9911 15.4396 204° Southwest  Level Estimated